Flight Track Log - Related Links

Times and Time Zones

All times are in EDT time to prevent confusion due to time zone crossing. See the KAP46 flight status page for this flight to view local times or setup timezone preferences in your user account.

Time Position Orientation Groundspeed Altitude Reporting Facility
EDT Latitude Longitude Course Direction KTS MPH feet Rate Location/Type
Thu 02:52:54 PM 43.5411 -74.0814 341° North 152 175 8,600  Level Boston Center
Thu 02:53:54 PM 43.5825 -74.1053 337° Northwest 152 175 8,600  Level Boston Center
Thu 02:54:54 PM 43.6217 -74.1264 339° North 152 175 8,600  Level Boston Center
Thu 02:55:54 PM 43.6611 -74.1478 339° North 152 175 8,600  Level Boston Center
Thu 02:56:54 PM 43.7044 -74.1689 341° North 152 175 8,600  Level Boston Center
Thu 02:57:54 PM 43.7333 -74.1872 335° Northwest 152 175 8,600  Level Boston Center
Thu 02:58:00 PM 44.8053 -74.7803 341° North  Level Estimated
Thu 02:58:54 PM 43.7831 -74.2117 340° North 152 175 8,600  Level Boston Center
Thu 02:59:54 PM 43.8242 -74.2358 337° Northwest 152 175 8,600  Level Boston Center
Thu 03:00:54 PM 43.8678 -74.2572 341° North 152 175 8,600  Level Boston Center
Thu 03:01:54 PM 43.9092 -74.2786 340° North 152 175 8,600  Level Boston Center
Thu 03:02:54 PM 43.9483 -74.3031 336° Northwest 152 175 8,600  Level Boston Center
Thu 03:03:54 PM 43.9814 -74.3214 338° Northwest 152 175 8,600  Level Boston Center
Thu 03:04:54 PM 44.0308 -74.3458 340° North 152 175 8,600  Level Boston Center
Thu 03:05:54 PM 44.0703 -74.3675 338° Northwest 152 175 8,600  Level Boston Center
Thu 03:06:54 PM 44.1094 -74.3861 341° North 152 175 8,600  Level Boston Center
Thu 03:07:54 PM 44.1506 -74.4106 337° Northwest 152 175 8,600  Level Boston Center
Thu 03:08:54 PM 44.1919 -74.4350 337° Northwest 152 175 8,600  Level Boston Center
Thu 03:09:54 PM 44.2353 -74.4569 340° North 152 175 8,600  Level Boston Center
Thu 03:10:54 PM 44.2744 -74.4783 339° North 152 175 8,600 -100 Level Boston Center
Thu 03:11:54 PM 44.3158 -74.5003 339° North 152 175 8,400 -300 Descending Boston Center
Thu 03:12:54 PM 44.3572 -74.5219 339° North 152 175 8,000 -350 Descending Boston Center
Thu 03:13:54 PM 44.4025 -74.5467 339° North 163 188 7,700 -350 Descending Boston Center
Thu 03:14:54 PM 44.4500 -74.5717 339° North 171 197 7,300 -350 Descending Boston Center
Thu 03:15:54 PM 44.4953 -74.5994 336° Northwest 176 203 7,000 -350 Descending Boston Center
Thu 03:16:54 PM 44.5450 -74.6100 351° North 170 196 6,600 -400 Descending Boston Center
Thu 03:17:54 PM 44.5903 -74.6408 334° Northwest 170 196 6,200 -450 Descending Boston Center
Thu 03:18:54 PM 44.6333 -74.6747 331° Northwest 170 196 5,700 -500 Descending Boston Center
Thu 03:19:54 PM 44.6808 -74.7028 337° Northwest 175 201 5,200 -650 Descending Boston Center
Thu 03:20:54 PM 44.7242 -74.7278 338° Northwest 175 201 4,400 1,650 Descending Boston Center
Thu 03:21:54 PM 44.7756 -74.7647 333° Northwest 175 201 8,500 2,050 Climbing Boston Center
Thu 03:22:54 PM 44.8206 -74.7958 334° Northwest 175 201 8,500  Level Boston Center
Thu 03:24:00 PM 44.8598 -74.7994 356° North  Level FlightAware Approximate

Login

Don't have an account? Register now (free) for customized features, flight alerts, and more!